Time;durP1;ratioP1;P1;durP2;ratioP2;P2;SDS_P1;SDS_P2;PMS_P1;PMS_P2;Temp;Humidity;BMP_temperature;BMP_pressure;BME280_temperature;BME280_humidity;BME280_pressure;Samples;Min_cycle;Max_cycle;Signal;HPM_P1;HPM_P2
2021/12/08 00:01:03;;;;;;;10.95;3.15;;;;;;;;;;4992180;28;20057;-75
2021/12/08 00:03:30;;;;;;;14.63;3.60;;;;;;;;;;4983326;28;20035;-76
2021/12/08 00:05:57;;;;;;;6.00;2.80;;;;;;;;;;4991865;28;20050;-76
2021/12/08 00:08:26;;;;;;;5.82;2.83;;;;;;;;;;4985707;28;20049;-75
2021/12/08 00:13:19;;;;;;;7.13;2.67;;;;;;;;;;4972427;28;20034;-76
2021/12/08 00:15:52;;;;;;;8.93;2.47;;;;;;;;;;4972468;28;20492;-76
2021/12/08 00:18:26;;;;;;;6.75;2.15;;;;;;;;;;4972974;28;20050;-77
2021/12/08 00:20:56;;;;;;;6.05;2.30;;;;;;;;;;4972874;28;20050;-76
2021/12/08 00:23:24;;;;;;;4.70;2.03;;;;;;;;;;4970992;28;20057;-77
2021/12/08 00:25:51;;;;;;;5.50;2.35;;;;;;;;;;4973420;28;20039;-77
2021/12/08 00:28:17;;;;;;;6.38;2.22;;;;;;;;;;4991645;28;20049;-77
2021/12/08 00:30:47;;;;;;;6.85;2.47;;;;;;;;;;4991816;28;20041;-77
2021/12/08 00:33:14;;;;;;;4.35;1.98;;;;;;;;;;5006803;28;20030;-77
2021/12/08 00:35:42;;;;;;;5.60;2.25;;;;;;;;;;4992337;28;20515;-77
2021/12/08 00:38:08;;;;;;;6.57;2.20;;;;;;;;;;4991447;28;20046;-77
2021/12/08 00:40:35;;;;;;;4.78;2.33;;;;;;;;;;4993899;28;20616;-77
2021/12/08 00:43:02;;;;;;;6.00;2.22;;;;;;;;;;4998214;28;20038;-77
2021/12/08 00:45:29;;;;;;;6.10;1.98;;;;;;;;;;4998408;28;20045;-77
2021/12/08 00:47:56;;;;;;;7.95;2.20;;;;;;;;;;5005424;28;20130;-75
2021/12/08 00:50:25;;;;;;;6.25;1.98;;;;;;;;;;5012361;28;20034;-75
2021/12/08 00:52:51;;;;;;;4.57;2.00;;;;;;;;;;5013015;28;20042;-77
2021/12/08 00:55:18;;;;;;;6.45;2.38;;;;;;;;;;5012998;28;20045;-77
2021/12/08 00:57:44;;;;;;;4.90;2.00;;;;;;;;;;5009838;28;20050;-77
2021/12/08 01:00:33;;;;;;;4.93;2.10;;;;;;;;;;5013792;28;20030;-76
2021/12/08 01:02:59;;;;;;;7.07;2.05;;;;;;;;;;5012933;28;20043;-77
2021/12/08 01:05:38;;;;;;;10.05;2.33;;;;;;;;;;5010151;28;20049;-77
2021/12/08 01:08:05;;;;;;;5.30;2.25;;;;;;;;;;5014429;28;20030;-76
2021/12/08 01:10:31;;;;;;;4.70;1.92;;;;;;;;;;5014729;28;20019;-76
2021/12/08 01:12:59;;;;;;;4.68;1.90;;;;;;;;;;5010484;28;20047;-75
2021/12/08 01:15:27;;;;;;;5.82;2.40;;;;;;;;;;4992517;28;20046;-77
2021/12/08 01:17:54;;;;;;;6.13;2.20;;;;;;;;;;4992486;28;20432;-76
2021/12/08 01:20:21;;;;;;;7.45;2.22;;;;;;;;;;4992956;28;20039;-76
2021/12/08 01:22:47;;;;;;;4.28;1.90;;;;;;;;;;4992891;28;20046;-77
2021/12/08 01:25:13;;;;;;;8.07;2.38;;;;;;;;;;4992176;28;20054;-76
2021/12/08 01:27:41;;;;;;;5.95;2.22;;;;;;;;;;4991441;28;20061;-77
2021/12/08 01:30:08;;;;;;;4.40;2.10;;;;;;;;;;4992935;28;20480;-76
2021/12/08 01:32:35;;;;;;;4.60;2.13;;;;;;;;;;4991401;28;20046;-76
2021/12/08 01:35:01;;;;;;;7.63;2.20;;;;;;;;;;4991433;28;20039;-76
2021/12/08 01:37:27;;;;;;;5.97;2.08;;;;;;;;;;4992468;28;20057;-76
2021/12/08 01:39:53;;;;;;;5.60;2.25;;;;;;;;;;4992621;28;20570;-76
2021/12/08 01:42:28;;;;;;;7.32;2.28;;;;;;;;;;4992640;28;20049;-76
2021/12/08 01:47:39;;;;;;;4.50;1.95;;;;;;;;;;4995745;28;20035;-76
2021/12/08 01:50:07;;;;;;;2.85;1.77;;;;;;;;;;4989767;28;20045;-76
2021/12/08 01:52:33;;;;;;;5.68;2.03;;;;;;;;;;4990813;28;20041;-75
2021/12/08 01:54:59;;;;;;;4.47;2.10;;;;;;;;;;4990701;28;20053;-75
2021/12/08 01:57:25;;;;;;;5.10;2.30;;;;;;;;;;4990382;28;20026;-75
2021/12/08 01:59:51;;;;;;;5.82;2.20;;;;;;;;;;4989009;28;20043;-75
2021/12/08 02:02:17;;;;;;;7.05;2.40;;;;;;;;;;4992696;28;20046;-75
2021/12/08 02:04:43;;;;;;;6.55;2.05;;;;;;;;;;4993776;28;20038;-75
2021/12/08 02:07:10;;;;;;;5.40;2.28;;;;;;;;;;4994132;28;20108;-75
2021/12/08 02:09:36;;;;;;;6.75;2.15;;;;;;;;;;4993737;28;20554;-75
2021/12/08 02:12:02;;;;;;;4.25;2.00;;;;;;;;;;4993547;28;20031;-75
2021/12/08 02:14:28;;;;;;;8.23;1.98;;;;;;;;;;4993885;28;20038;-75
2021/12/08 02:16:55;;;;;;;3.78;2.13;;;;;;;;;;4993735;28;20429;-75
2021/12/08 02:19:22;;;;;;;4.35;1.80;;;;;;;;;;4993729;28;20097;-75
2021/12/08 02:21:52;;;;;;;5.97;2.28;;;;;;;;;;4993550;28;20041;-75
2021/12/08 02:24:20;;;;;;;4.93;1.90;;;;;;;;;;4992950;28;20046;-75
2021/12/08 02:26:47;;;;;;;4.32;1.95;;;;;;;;;;4993897;28;20050;-75
2021/12/08 02:29:20;;;;;;;5.35;2.40;;;;;;;;;;4993642;28;20026;-75
2021/12/08 02:48:21;;;;;;;5.97;2.58;;;;;;;;;;4996332;28;20042;-75
2021/12/08 02:50:47;;;;;;;5.63;2.33;;;;;;;;;;4993451;28;20117;-75
2021/12/08 02:53:15;;;;;;;5.93;2.40;;;;;;;;;;4994345;28;20038;-75
2021/12/08 02:55:42;;;;;;;4.20;1.90;;;;;;;;;;4992842;28;20031;-75
2021/12/08 02:58:08;;;;;;;4.65;2.20;;;;;;;;;;4993050;28;20042;-75
2021/12/08 03:00:42;;;;;;;5.78;2.20;;;;;;;;;;4992947;28;20031;-75
2021/12/08 03:03:08;;;;;;;5.05;2.30;;;;;;;;;;4993121;28;20061;-75
2021/12/08 03:05:34;;;;;;;6.28;2.50;;;;;;;;;;4993107;28;20096;-75
2021/12/08 03:08:05;;;;;;;4.05;2.10;;;;;;;;;;4990798;28;20034;-75
2021/12/08 03:10:34;;;;;;;3.85;2.17;;;;;;;;;;4989047;28;20038;-75
2021/12/08 03:13:00;;;;;;;6.20;2.40;;;;;;;;;;4992691;28;20038;-75
2021/12/08 03:15:26;;;;;;;6.43;2.15;;;;;;;;;;4995141;28;20469;-76
2021/12/08 03:17:52;;;;;;;5.20;2.40;;;;;;;;;;4995650;28;20038;-75
2021/12/08 03:20:26;;;;;;;6.85;2.50;;;;;;;;;;4996280;28;20481;-75
2021/12/08 03:22:58;;;;;;;4.43;2.40;;;;;;;;;;4996505;28;20050;-75
2021/12/08 03:25:25;;;;;;;5.53;2.40;;;;;;;;;;4992805;28;20053;-75
2021/12/08 03:28:04;;;;;;;5.72;2.38;;;;;;;;;;4992424;28;20023;-75
2021/12/08 03:30:37;;;;;;;5.90;2.20;;;;;;;;;;4992515;28;20392;-75
2021/12/08 03:33:03;;;;;;;5.80;2.28;;;;;;;;;;4992539;28;20373;-75
2021/12/08 03:35:30;;;;;;;5.03;2.35;;;;;;;;;;4992280;28;20084;-75
2021/12/08 03:37:56;;;;;;;5.80;2.08;;;;;;;;;;4992457;28;20042;-75
2021/12/08 03:40:24;;;;;;;5.32;2.10;;;;;;;;;;4991939;28;20481;-75
2021/12/08 03:42:53;;;;;;;6.22;2.60;;;;;;;;;;4991893;28;20041;-76
2021/12/08 03:45:29;;;;;;;5.28;2.70;;;;;;;;;;4991870;28;20038;-75
2021/12/08 03:48:02;;;;;;;10.95;2.55;;;;;;;;;;4992082;28;20046;-75
2021/12/08 03:50:30;;;;;;;10.73;2.80;;;;;;;;;;4991796;28;20038;-75
2021/12/08 03:52:56;;;;;;;9.00;2.80;;;;;;;;;;4991421;28;20439;-76
2021/12/08 03:55:22;;;;;;;10.45;2.60;;;;;;;;;;4991594;28;20026;-76
2021/12/08 03:57:48;;;;;;;9.52;2.75;;;;;;;;;;4991531;28;20353;-76
2021/12/08 04:00:17;;;;;;;7.68;2.80;;;;;;;;;;4991757;28;20050;-75
2021/12/08 04:02:44;;;;;;;7.70;2.53;;;;;;;;;;4991990;28;20038;-75
2021/12/08 04:05:11;;;;;;;10.23;2.80;;;;;;;;;;4990549;28;20046;-76
2021/12/08 04:07:43;;;;;;;8.63;2.72;;;;;;;;;;4991664;28;20498;-76
2021/12/08 04:10:16;;;;;;;7.05;2.70;;;;;;;;;;4992221;28;20049;-77
2021/12/08 04:12:44;;;;;;;7.25;2.88;;;;;;;;;;4991649;28;20508;-76
2021/12/08 04:15:11;;;;;;;6.53;2.80;;;;;;;;;;4991766;28;20047;-76
2021/12/08 04:17:42;;;;;;;8.38;3.20;;;;;;;;;;4990134;28;20030;-75
2021/12/08 04:20:18;;;;;;;7.67;2.57;;;;;;;;;;4990338;28;20053;-75
2021/12/08 04:22:49;;;;;;;5.88;2.58;;;;;;;;;;4990860;28;20465;-75
2021/12/08 04:25:20;;;;;;;5.10;2.70;;;;;;;;;;4991377;28;20061;-76
2021/12/08 04:27:51;;;;;;;6.72;2.60;;;;;;;;;;4991415;28;20069;-75
2021/12/08 04:30:23;;;;;;;6.28;2.67;;;;;;;;;;4990980;28;20027;-76
2021/12/08 04:32:49;;;;;;;5.72;2.88;;;;;;;;;;4991177;28;20038;-75
2021/12/08 04:35:18;;;;;;;7.35;3.17;;;;;;;;;;4973776;28;20508;-75
2021/12/08 04:37:48;;;;;;;8.80;4.00;;;;;;;;;;4990898;28;20046;-75
2021/12/08 04:45:43;;;;;;;8.60;3.95;;;;;;;;;;4992734;28;20038;-75
2021/12/08 04:51:00;;;;;;;9.45;4.13;;;;;;;;;;4991157;28;20037;-75
2021/12/08 05:07:31;;;;;;;8.48;3.33;;;;;;;;;;4991764;28;20038;-76
2021/12/08 05:10:01;;;;;;;10.10;5.57;;;;;;;;;;4991689;28;20038;-76
2021/12/08 05:12:31;;;;;;;8.63;3.50;;;;;;;;;;4991387;28;20034;-76
2021/12/08 05:15:10;;;;;;;9.43;4.50;;;;;;;;;;4990135;28;20511;-76
2021/12/08 05:17:46;;;;;;;7.05;4.05;;;;;;;;;;4991697;28;20043;-77
2021/12/08 05:20:18;;;;;;;7.80;3.65;;;;;;;;;;4991339;28;20037;-77
2021/12/08 05:22:53;;;;;;;7.70;3.58;;;;;;;;;;4987724;28;20065;-77
2021/12/08 05:25:22;;;;;;;8.13;4.25;;;;;;;;;;4981204;28;20034;-76
2021/12/08 05:27:52;;;;;;;6.70;3.90;;;;;;;;;;4980502;28;20055;-77
2021/12/08 05:30:28;;;;;;;9.32;4.13;;;;;;;;;;4981672;28;20034;-77
2021/12/08 05:32:55;;;;;;;9.45;4.43;;;;;;;;;;4972396;28;20043;-76
2021/12/08 05:35:24;;;;;;;7.93;3.95;;;;;;;;;;4974387;28;20031;-76
2021/12/08 05:37:50;;;;;;;7.97;4.25;;;;;;;;;;4990073;28;20157;-75
2021/12/08 05:40:20;;;;;;;8.52;3.95;;;;;;;;;;4995118;28;20101;-75
2021/12/08 05:42:46;;;;;;;9.70;4.28;;;;;;;;;;4994890;28;20042;-76
2021/12/08 05:45:16;;;;;;;7.20;3.55;;;;;;;;;;4995041;28;20219;-77
2021/12/08 05:47:43;;;;;;;6.13;3.50;;;;;;;;;;4993520;28;20051;-77
2021/12/08 05:50:11;;;;;;;8.85;4.20;;;;;;;;;;4995051;28;20042;-76
2021/12/08 05:52:37;;;;;;;11.15;4.45;;;;;;;;;;4994763;28;20412;-76
2021/12/08 05:55:06;;;;;;;9.70;4.18;;;;;;;;;;4995110;28;20045;-76
2021/12/08 05:57:37;;;;;;;10.05;4.55;;;;;;;;;;4991434;28;20511;-75
2021/12/08 06:00:20;;;;;;;10.63;4.30;;;;;;;;;;4994643;28;20489;-77
2021/12/08 06:02:47;;;;;;;7.70;4.18;;;;;;;;;;4994595;28;20042;-75
2021/12/08 06:05:14;;;;;;;10.93;4.50;;;;;;;;;;4994595;28;20509;-77
2021/12/08 06:07:42;;;;;;;7.05;4.13;;;;;;;;;;4994544;28;20444;-76
2021/12/08 06:10:14;;;;;;;9.65;4.55;;;;;;;;;;4994573;28;20515;-76
2021/12/08 06:12:41;;;;;;;9.23;4.28;;;;;;;;;;4994179;28;20396;-78
2021/12/08 06:15:08;;;;;;;9.30;4.20;;;;;;;;;;4994352;28;20057;-76
2021/12/08 06:17:34;;;;;;;8.43;4.18;;;;;;;;;;5009070;28;20553;-76
2021/12/08 06:20:02;;;;;;;10.30;4.10;;;;;;;;;;4992724;28;20049;-69
2021/12/08 06:22:29;;;;;;;10.18;4.57;;;;;;;;;;4994571;28;20039;-76
2021/12/08 06:24:55;;;;;;;10.30;4.93;;;;;;;;;;4995132;28;20049;-75
2021/12/08 06:27:21;;;;;;;12.10;4.90;;;;;;;;;;4984173;28;20124;-75
2021/12/08 06:29:49;;;;;;;9.95;5.13;;;;;;;;;;4990257;28;20133;-76
2021/12/08 06:32:16;;;;;;;11.65;4.75;;;;;;;;;;4994327;28;20038;-76
2021/12/08 06:34:46;;;;;;;7.70;4.68;;;;;;;;;;4994106;28;20038;-76
2021/12/08 06:37:17;;;;;;;9.13;4.72;;;;;;;;;;4993777;28;20027;-75
2021/12/08 06:39:48;;;;;;;9.82;5.13;;;;;;;;;;4994313;28;20042;-76
2021/12/08 06:42:21;;;;;;;9.23;4.95;;;;;;;;;;4994018;28;20035;-76
2021/12/08 06:44:49;;;;;;;10.43;5.28;;;;;;;;;;4988644;28;20489;-76
2021/12/08 06:47:20;;;;;;;10.05;4.88;;;;;;;;;;4984816;28;20531;-75
2021/12/08 06:49:48;;;;;;;11.13;4.80;;;;;;;;;;4992228;28;20049;-75
2021/12/08 06:52:22;;;;;;;9.73;4.55;;;;;;;;;;4979543;28;20411;-75
2021/12/08 06:54:53;;;;;;;10.48;4.68;;;;;;;;;;4981130;28;20030;-76
2021/12/08 06:57:37;;;;;;;9.32;4.65;;;;;;;;;;4982820;28;20472;-75
2021/12/08 07:00:23;;;;;;;11.73;5.20;;;;;;;;;;4990185;28;20401;-75
2021/12/08 07:03:17;;;;;;;9.25;4.75;;;;;;;;;;4981215;28;20034;-75
2021/12/08 07:08:50;;;;;;;10.52;5.47;;;;;;;;;;4992362;28;20495;-75
2021/12/08 07:11:18;;;;;;;8.50;4.88;;;;;;;;;;4992981;28;20030;-75
2021/12/08 07:13:49;;;;;;;8.13;5.20;;;;;;;;;;4978713;28;20039;-75
2021/12/08 07:16:20;;;;;;;10.75;5.60;;;;;;;;;;4992240;28;20439;-76
2021/12/08 07:18:56;;;;;;;11.60;5.90;;;;;;;;;;4992899;28;20492;-76
2021/12/08 07:21:26;;;;;;;9.20;5.82;;;;;;;;;;4993204;28;20378;-75
2021/12/08 07:24:02;;;;;;;10.75;5.65;;;;;;;;;;4976916;28;20034;-75
2021/12/08 07:26:32;;;;;;;11.20;6.20;;;;;;;;;;4977287;28;20389;-75
2021/12/08 07:29:01;;;;;;;13.05;7.18;;;;;;;;;;4992519;28;20680;-77
2021/12/08 07:31:34;;;;;;;9.70;6.13;;;;;;;;;;4992627;28;20038;-75
2021/12/08 07:34:05;;;;;;;10.30;5.80;;;;;;;;;;4991523;28;20051;-75
2021/12/08 07:36:33;;;;;;;;;;;;;;;;;;4990738;28;20041;-75
2021/12/08 07:39:00;;;;;;;9.88;5.45;;;;;;;;;;4989333;28;20627;-75
2021/12/08 07:41:32;;;;;;;12.27;6.75;;;;;;;;;;4987403;28;20053;-76
2021/12/08 07:44:02;;;;;;;10.38;6.13;;;;;;;;;;4992069;28;20030;-76
2021/12/08 07:46:33;;;;;;;12.27;6.53;;;;;;;;;;4990066;28;20045;-77
2021/12/08 07:49:05;;;;;;;10.27;6.03;;;;;;;;;;4991939;28;20405;-76
2021/12/08 07:51:36;;;;;;;12.15;6.45;;;;;;;;;;4992846;28;20050;-76
2021/12/08 07:54:04;;;;;;;11.90;6.30;;;;;;;;;;4976702;28;20038;-77
2021/12/08 07:56:32;;;;;;;13.02;6.28;;;;;;;;;;4992609;28;20046;-76
2021/12/08 07:59:01;;;;;;;10.82;6.20;;;;;;;;;;4982650;28;20062;-76
2021/12/08 08:01:35;;;;;;;12.52;6.78;;;;;;;;;;4991342;28;20049;-75
2021/12/08 08:04:04;;;;;;;11.73;6.53;;;;;;;;;;4987426;28;20042;-74
2021/12/08 08:06:35;;;;;;;14.80;8.68;;;;;;;;;;4999149;28;20039;-76
2021/12/08 08:09:04;;;;;;;16.83;8.15;;;;;;;;;;4992782;28;20197;-76
2021/12/08 08:11:36;;;;;;;13.77;8.35;;;;;;;;;;4992312;28;20515;-75
2021/12/08 08:14:03;;;;;;;15.85;7.32;;;;;;;;;;4992784;28;20041;-74
2021/12/08 08:16:33;;;;;;;14.80;7.72;;;;;;;;;;5010542;28;20046;-74
2021/12/08 08:19:09;;;;;;;13.05;6.82;;;;;;;;;;5010157;28;20052;-76
2021/12/08 08:21:41;;;;;;;13.15;7.57;;;;;;;;;;5010441;28;20034;-75
2021/12/08 08:24:09;;;;;;;12.75;7.20;;;;;;;;;;4996555;28;20665;-77
2021/12/08 08:26:36;;;;;;;14.80;8.00;;;;;;;;;;5009621;28;20040;-74
2021/12/08 08:29:05;;;;;;;14.30;8.30;;;;;;;;;;5007804;28;20046;-73
2021/12/08 08:31:42;;;;;;;12.45;7.68;;;;;;;;;;5003958;28;20045;-73
2021/12/08 08:34:09;;;;;;;17.40;8.73;;;;;;;;;;4996864;28;20049;-75
2021/12/08 08:36:41;;;;;;;13.55;7.70;;;;;;;;;;5002049;28;20039;-75
2021/12/08 08:39:15;;;;;;;23.10;12.18;;;;;;;;;;5004345;28;20033;-77
2021/12/08 08:42:05;;;;;;;77.13;35.38;;;;;;;;;;5005329;28;20037;-78
2021/12/08 08:44:35;;;;;;;31.30;13.90;;;;;;;;;;5013143;28;20014;-78
2021/12/08 08:47:08;;;;;;;20.92;10.10;;;;;;;;;;4998787;28;20035;-75
2021/12/08 08:49:35;;;;;;;35.20;20.20;;;;;;;;;;4989756;28;20035;-75
2021/12/08 08:52:28;;;;;;;30.38;16.50;;;;;;;;;;4986802;28;20042;-76
2021/12/08 08:55:00;;;;;;;25.08;15.90;;;;;;;;;;4988039;28;20034;-75
2021/12/08 08:57:29;;;;;;;15.52;9.35;;;;;;;;;;4995588;28;20030;-78
2021/12/08 09:00:15;;;;;;;18.67;10.90;;;;;;;;;;4992349;28;20477;-77
2021/12/08 09:02:41;;;;;;;16.05;8.30;;;;;;;;;;4992521;28;20054;-76
2021/12/08 09:05:25;;;;;;;16.67;8.65;;;;;;;;;;4990375;28;20034;-76
2021/12/08 09:07:55;;;;;;;15.95;8.70;;;;;;;;;;4992969;28;20034;-77
2021/12/08 09:10:44;;;;;;;18.23;9.70;;;;;;;;;;4995404;28;20046;-76
2021/12/08 09:13:18;;;;;;;17.90;10.75;;;;;;;;;;4996736;28;20034;-76
2021/12/08 09:15:51;;;;;;;17.42;11.13;;;;;;;;;;4996436;28;20423;-75
2021/12/08 09:18:39;;;;;;;16.58;9.82;;;;;;;;;;4995565;28;20053;-75
2021/12/08 09:21:25;;;;;;;15.20;9.18;;;;;;;;;;4994631;28;20408;-75
2021/12/08 09:24:02;;;;;;;15.98;9.05;;;;;;;;;;4995255;28;20046;-75
2021/12/08 09:26:31;;;;;;;15.75;8.93;;;;;;;;;;4979138;28;20061;-75
2021/12/08 09:29:03;;;;;;;15.30;8.48;;;;;;;;;;4986777;28;20031;-76
2021/12/08 09:31:35;;;;;;;13.68;8.13;;;;;;;;;;4986541;28;20061;-76
2021/12/08 09:34:08;;;;;;;15.80;8.38;;;;;;;;;;4980526;28;20519;-75
2021/12/08 09:36:42;;;;;;;13.23;7.53;;;;;;;;;;4991565;28;20035;-76
2021/12/08 09:39:13;;;;;;;14.23;8.52;;;;;;;;;;4981694;28;20042;-76
2021/12/08 09:41:48;;;;;;;14.23;8.40;;;;;;;;;;4982778;28;20236;-77
2021/12/08 09:44:33;;;;;;;14.35;8.75;;;;;;;;;;4991623;28;20038;-76
2021/12/08 09:46:59;;;;;;;14.63;8.30;;;;;;;;;;4994696;28;20485;-75
2021/12/08 09:49:26;;;;;;;18.63;11.60;;;;;;;;;;4985123;28;20401;-76
2021/12/08 09:51:55;;;;;;;19.65;11.25;;;;;;;;;;4994551;28;20163;-76
2021/12/08 09:54:22;;;;;;;18.10;9.63;;;;;;;;;;4993612;28;20049;-75
2021/12/08 09:56:50;;;;;;;16.10;8.20;;;;;;;;;;4994422;28;20042;-75
2021/12/08 09:59:16;;;;;;;15.82;8.18;;;;;;;;;;4993704;28;20042;-76
2021/12/08 10:01:43;;;;;;;18.63;8.43;;;;;;;;;;4997068;28;20061;-76
2021/12/08 10:04:13;;;;;;;16.35;8.55;;;;;;;;;;4997732;28;20038;-75
2021/12/08 10:06:41;;;;;;;17.17;8.38;;;;;;;;;;4997260;28;20400;-76
2021/12/08 10:09:08;;;;;;;12.85;8.32;;;;;;;;;;4995567;28;20049;-76
2021/12/08 10:11:34;;;;;;;13.98;7.82;;;;;;;;;;4995826;28;20034;-76
2021/12/08 10:14:02;;;;;;;13.82;7.85;;;;;;;;;;4993071;28;20046;-76
2021/12/08 10:16:28;;;;;;;15.00;8.77;;;;;;;;;;4979186;28;20435;-76
2021/12/08 10:18:56;;;;;;;13.88;7.60;;;;;;;;;;4973457;28;20047;-76
2021/12/08 10:21:35;;;;;;;13.98;8.00;;;;;;;;;;4973815;28;20631;-76
2021/12/08 10:24:12;;;;;;;12.65;7.97;;;;;;;;;;4973043;28;20047;-76
2021/12/08 10:26:38;;;;;;;19.23;9.82;;;;;;;;;;4989394;28;20358;-76
2021/12/08 10:29:06;;;;;;;15.45;9.75;;;;;;;;;;4990852;28;20131;-76
2021/12/08 10:31:39;;;;;;;15.70;9.68;;;;;;;;;;4993133;28;20039;-75
2021/12/08 10:34:24;;;;;;;21.63;8.93;;;;;;;;;;4994239;28;20507;-76
2021/12/08 10:37:04;;;;;;;17.75;8.40;;;;;;;;;;4977771;28;20051;-75
2021/12/08 10:39:32;;;;;;;15.45;8.93;;;;;;;;;;4973958;28;20039;-75
2021/12/08 10:42:07;;;;;;;17.55;9.45;;;;;;;;;;4974647;28;20050;-75
2021/12/08 10:44:47;;;;;;;16.33;8.18;;;;;;;;;;4974245;28;20070;-75
2021/12/08 10:47:21;;;;;;;16.73;8.75;;;;;;;;;;4991675;28;20513;-75
2021/12/08 10:55:13;;;;;;;17.25;8.82;;;;;;;;;;4979152;28;20385;-75
2021/12/08 10:57:39;;;;;;;17.13;8.80;;;;;;;;;;4993172;28;20051;-76
2021/12/08 11:00:21;;;;;;;14.38;8.80;;;;;;;;;;4992943;28;20034;-76
2021/12/08 11:03:02;;;;;;;14.73;8.93;;;;;;;;;;4973741;28;20061;-76
2021/12/08 11:05:41;;;;;;;14.43;9.10;;;;;;;;;;4973856;28;20129;-76
2021/12/08 11:08:12;;;;;;;15.80;8.48;;;;;;;;;;4973596;28;20474;-75
2021/12/08 11:10:41;;;;;;;;;;;;;;;;;;4973850;28;20048;-75
2021/12/08 11:13:08;;;;;;;14.20;8.90;;;;;;;;;;4973254;28;19929;-75
2021/12/08 11:15:35;;;;;;;14.23;8.77;;;;;;;;;;4992560;28;20029;-76
2021/12/08 11:18:21;;;;;;;16.05;8.95;;;;;;;;;;4992766;28;20045;-76
2021/12/08 11:21:00;;;;;;;15.98;9.02;;;;;;;;;;4992584;28;20051;-75
2021/12/08 11:23:46;;;;;;;19.17;9.45;;;;;;;;;;4974770;28;20054;-75
2021/12/08 11:26:35;;;;;;;19.08;9.18;;;;;;;;;;4992954;28;20042;-74
2021/12/08 11:29:08;;;;;;;17.35;9.90;;;;;;;;;;4993128;28;20047;-74
2021/12/08 11:31:44;;;;;;;14.95;9.93;;;;;;;;;;4992918;28;20053;-75
2021/12/08 11:34:18;;;;;;;13.93;9.05;;;;;;;;;;4991285;28;20058;-75
2021/12/08 11:36:46;;;;;;;16.33;9.38;;;;;;;;;;4992711;28;20027;-75
2021/12/08 11:39:20;;;;;;;15.75;8.60;;;;;;;;;;4992623;28;20408;-75
2021/12/08 11:41:48;;;;;;;20.02;8.90;;;;;;;;;;4986237;28;20034;-75
2021/12/08 11:44:18;;;;;;;16.15;8.70;;;;;;;;;;4987471;28;20050;-75
2021/12/08 11:46:56;;;;;;;15.23;9.40;;;;;;;;;;4973465;28;20047;-75
2021/12/08 11:49:23;;;;;;;16.02;9.32;;;;;;;;;;4977853;28;20030;-75
2021/12/08 11:51:49;;;;;;;14.80;8.70;;;;;;;;;;4986078;28;20034;-75
2021/12/08 11:54:41;;;;;;;16.35;8.48;;;;;;;;;;4984881;28;20117;-75
2021/12/08 11:57:18;;;;;;;16.92;8.68;;;;;;;;;;4975915;28;20031;-76
2021/12/08 12:00:02;;;;;;;15.18;8.27;;;;;;;;;;4990168;28;20046;-75
2021/12/08 12:02:39;;;;;;;19.55;8.70;;;;;;;;;;4987234;28;20038;-74
2021/12/08 12:05:12;;;;;;;17.30;8.55;;;;;;;;;;4987002;28;20385;-74
2021/12/08 12:07:39;;;;;;;15.50;8.90;;;;;;;;;;4991360;28;20052;-75
2021/12/08 12:10:11;;;;;;;14.45;9.20;;;;;;;;;;4991036;28;20049;-74
2021/12/08 12:12:40;;;;;;;18.05;8.40;;;;;;;;;;4987413;28;20508;-74
2021/12/08 12:15:07;;;;;;;15.68;8.38;;;;;;;;;;4981895;28;20054;-75
2021/12/08 12:17:33;;;;;;;13.80;8.63;;;;;;;;;;4972200;28;20038;-75
2021/12/08 12:20:28;;;;;;;15.70;8.90;;;;;;;;;;4987242;28;20500;-74
2021/12/08 12:23:13;;;;;;;13.43;8.50;;;;;;;;;;4970063;28;20043;-75
2021/12/08 12:26:07;;;;;;;16.38;9.40;;;;;;;;;;4987261;28;20057;-75
2021/12/08 12:28:38;;;;;;;16.10;8.68;;;;;;;;;;4977267;28;20026;-75
2021/12/08 12:31:28;;;;;;;17.58;8.68;;;;;;;;;;4991346;28;20030;-74
2021/12/08 12:33:55;;;;;;;17.48;9.07;;;;;;;;;;4991465;28;20499;-75
2021/12/08 12:36:30;;;;;;;14.63;8.45;;;;;;;;;;4973789;28;20062;-75
2021/12/08 12:39:11;;;;;;;18.25;9.20;;;;;;;;;;4981397;28;20140;-74
2021/12/08 12:41:37;;;;;;;;;;;;;;;;;;4973930;28;20049;-75
2021/12/08 12:44:20;;;;;;;15.07;8.52;;;;;;;;;;4991628;28;20272;-75
2021/12/08 12:47:13;;;;;;;16.38;8.88;;;;;;;;;;4989111;28;20031;-75
2021/12/08 12:49:44;;;;;;;15.98;9.18;;;;;;;;;;4971955;28;20473;-76
2021/12/08 12:52:12;;;;;;;16.48;9.07;;;;;;;;;;4971870;28;20027;-72
2021/12/08 12:54:39;;;;;;;18.25;8.98;;;;;;;;;;4972297;28;20047;-72
2021/12/08 12:57:07;;;;;;;11.95;7.78;;;;;;;;;;4971875;28;20046;-75
2021/12/08 12:59:52;;;;;;;12.98;7.93;;;;;;;;;;4971575;28;20042;-75
2021/12/08 13:02:26;;;;;;;16.98;8.95;;;;;;;;;;4986114;28;20042;-74
2021/12/08 13:04:59;;;;;;;16.88;8.88;;;;;;;;;;4991402;28;20515;-75
2021/12/08 13:07:27;;;;;;;14.15;8.82;;;;;;;;;;4982681;28;20038;-75
2021/12/08 13:09:55;;;;;;;13.43;8.48;;;;;;;;;;4980391;28;20034;-75
2021/12/08 13:12:38;;;;;;;17.92;9.57;;;;;;;;;;4982176;28;20077;-77
2021/12/08 13:15:17;;;;;;;14.23;8.77;;;;;;;;;;5005008;28;20038;-76
2021/12/08 13:18:03;;;;;;;14.02;8.32;;;;;;;;;;4981205;28;20038;-76
2021/12/08 13:20:37;;;;;;;16.20;9.68;;;;;;;;;;4981451;28;20046;-75
2021/12/08 13:23:06;;;;;;;17.33;9.55;;;;;;;;;;4983828;28;20468;-76
2021/12/08 13:25:39;;;;;;;14.15;8.88;;;;;;;;;;4985029;28;20043;-73
2021/12/08 13:28:22;;;;;;;15.75;8.88;;;;;;;;;;4991145;28;20043;-73
2021/12/08 13:31:07;;;;;;;18.58;9.50;;;;;;;;;;4989521;28;20041;-73
2021/12/08 13:33:51;;;;;;;17.38;9.68;;;;;;;;;;4989072;28;20035;-73
2021/12/08 13:36:20;;;;;;;18.80;9.82;;;;;;;;;;4985694;28;20461;-73
2021/12/08 13:38:58;;;;;;;20.63;10.05;;;;;;;;;;4989905;28;20042;-73
2021/12/08 13:41:28;;;;;;;15.07;9.02;;;;;;;;;;4991824;28;20058;-73
2021/12/08 13:43:56;;;;;;;16.83;9.17;;;;;;;;;;4991114;28;20054;-73
2021/12/08 13:46:36;;;;;;;16.45;8.93;;;;;;;;;;4990738;28;20488;-73
2021/12/08 13:49:16;;;;;;;19.05;9.45;;;;;;;;;;4974166;28;20203;-73
2021/12/08 13:51:59;;;;;;;18.35;9.60;;;;;;;;;;4983554;28;20492;-73
2021/12/08 13:54:28;;;;;;;15.02;9.60;;;;;;;;;;4984842;28;20047;-74
2021/12/08 13:56:55;;;;;;;17.95;9.85;;;;;;;;;;4984383;28;20035;-73
2021/12/08 14:00:01;;;;;;;16.33;9.13;;;;;;;;;;4975909;28;20042;-74
2021/12/08 14:02:48;;;;;;;15.32;9.73;;;;;;;;;;4993877;28;20050;-74
2021/12/08 14:05:17;;;;;;;17.17;9.55;;;;;;;;;;4987764;28;20046;-73
2021/12/08 14:08:03;;;;;;;14.70;9.18;;;;;;;;;;4992441;28;20515;-74
2021/12/08 14:10:41;;;;;;;20.05;10.15;;;;;;;;;;4993879;28;20497;-74
2021/12/08 14:13:10;;;;;;;19.67;10.07;;;;;;;;;;4992636;28;20057;-75
2021/12/08 14:15:54;;;;;;;18.80;10.10;;;;;;;;;;4981701;28;20039;-75
2021/12/08 14:18:35;;;;;;;15.80;9.60;;;;;;;;;;4993935;28;20065;-75
2021/12/08 14:21:20;;;;;;;18.52;10.20;;;;;;;;;;4990144;28;20514;-74
2021/12/08 14:23:56;;;;;;;18.45;9.95;;;;;;;;;;4974790;28;20038;-74
2021/12/08 14:26:31;;;;;;;16.52;9.82;;;;;;;;;;4985677;28;20135;-74
2021/12/08 14:29:13;;;;;;;15.25;9.30;;;;;;;;;;4993506;28;20025;-74
2021/12/08 14:31:45;;;;;;;16.58;10.43;;;;;;;;;;4994088;28;20493;-75
2021/12/08 14:34:13;;;;;;;;;;;;;;;;;;4993457;28;20038;-73
2021/12/08 14:37:02;;;;;;;17.67;9.60;;;;;;;;;;4993834;28;19920;-74
2021/12/08 14:39:50;;;;;;;17.27;9.55;;;;;;;;;;4992761;28;20042;-74
2021/12/08 14:42:21;;;;;;;17.70;9.40;;;;;;;;;;4993635;28;20030;-73
2021/12/08 14:44:54;;;;;;;15.73;9.77;;;;;;;;;;4992256;28;20042;-74
2021/12/08 14:47:30;;;;;;;18.30;10.40;;;;;;;;;;4993102;28;21007;-75
2021/12/08 14:50:00;;;;;;;16.60;9.98;;;;;;;;;;4993486;28;20038;-75
2021/12/08 14:52:31;;;;;;;17.27;10.30;;;;;;;;;;4993654;28;20484;-75
2021/12/08 14:54:58;;;;;;;18.57;10.83;;;;;;;;;;4992884;28;20092;-74
2021/12/08 14:57:35;;;;;;;17.70;9.52;;;;;;;;;;4993065;28;20059;-75
2021/12/08 15:00:06;;;;;;;20.40;11.48;;;;;;;;;;4993250;28;20053;-75
2021/12/08 15:02:57;;;;;;;19.33;11.00;;;;;;;;;;4994804;28;20416;-74
2021/12/08 15:05:24;;;;;;;18.80;10.55;;;;;;;;;;4983301;28;20038;-75
2021/12/08 15:07:51;;;;;;;16.02;10.32;;;;;;;;;;4975925;28;20516;-75
2021/12/08 15:10:24;;;;;;;19.70;10.38;;;;;;;;;;4985172;28;20137;-74
2021/12/08 15:12:53;;;;;;;20.63;11.05;;;;;;;;;;4976067;28;20393;-75
2021/12/08 15:15:24;;;;;;;21.33;10.70;;;;;;;;;;4975654;28;20042;-75
2021/12/08 15:18:05;;;;;;;20.83;11.23;;;;;;;;;;4993159;28;20034;-75
2021/12/08 15:20:36;;;;;;;19.33;10.80;;;;;;;;;;4975672;28;20127;-74
2021/12/08 15:23:11;;;;;;;18.13;10.95;;;;;;;;;;4984224;28;20038;-75
2021/12/08 15:25:38;;;;;;;19.95;11.73;;;;;;;;;;4973413;28;20505;-75
2021/12/08 15:28:08;;;;;;;17.45;11.32;;;;;;;;;;4972984;28;20030;-73
2021/12/08 15:30:55;;;;;;;17.83;10.93;;;;;;;;;;4971768;28;20046;-74
2021/12/08 15:33:22;;;;;;;19.88;10.60;;;;;;;;;;4973472;28;20133;-75
2021/12/08 15:35:51;;;;;;;18.73;10.85;;;;;;;;;;4973472;28;20043;-75
2021/12/08 15:38:18;;;;;;;21.95;11.38;;;;;;;;;;4973709;28;20039;-75
2021/12/08 15:40:48;;;;;;;17.25;10.35;;;;;;;;;;4972463;28;20482;-75
2021/12/08 15:43:16;;;;;;;19.38;11.23;;;;;;;;;;4971601;28;20035;-73
2021/12/08 15:45:45;;;;;;;21.45;11.50;;;;;;;;;;4973644;28;20053;-74
2021/12/08 15:48:14;;;;;;;21.45;11.98;;;;;;;;;;4973570;28;20046;-74
2021/12/08 15:50:45;;;;;;;21.55;12.05;;;;;;;;;;4973187;28;20050;-74
2021/12/08 15:53:17;;;;;;;22.00;12.20;;;;;;;;;;4973764;28;20042;-73